sensor_id;sensor_type;location;lat;lon;timestamp;P1;durP1;ratioP1;P2;durP2;ratioP2
50249;SDS011;36133;42.522;27.456;2023-05-02T00:02:12;23.02;;;14.27;;
50249;SDS011;36133;42.522;27.456;2023-05-02T00:04:38;22.30;;;12.40;;
50249;SDS011;36133;42.522;27.456;2023-05-02T00:07:04;19.05;;;12.82;;
50249;SDS011;36133;42.522;27.456;2023-05-02T00:09:30;27.45;;;15.07;;
50249;SDS011;36133;42.522;27.456;2023-05-02T00:11:55;27.48;;;17.70;;
50249;SDS011;36133;42.522;27.456;2023-05-02T00:14:21;32.58;;;20.02;;
50249;SDS011;36133;42.522;27.456;2023-05-02T00:16:48;32.95;;;20.85;;
50249;SDS011;36133;42.522;27.456;2023-05-02T00:19:14;34.00;;;21.42;;
50249;SDS011;36133;42.522;27.456;2023-05-02T00:21:39;31.83;;;20.30;;
50249;SDS011;36133;42.522;27.456;2023-05-02T00:24:05;35.95;;;20.67;;
50249;SDS011;36133;42.522;27.456;2023-05-02T00:26:33;35.30;;;19.98;;
50249;SDS011;36133;42.522;27.456;2023-05-02T00:28:59;29.13;;;20.15;;
50249;SDS011;36133;42.522;27.456;2023-05-02T00:31:25;38.83;;;24.80;;
50249;SDS011;36133;42.522;27.456;2023-05-02T00:33:50;73.65;;;48.72;;
50249;SDS011;36133;42.522;27.456;2023-05-02T00:36:16;67.38;;;43.45;;
50249;SDS011;36133;42.522;27.456;2023-05-02T00:38:44;60.80;;;40.53;;
50249;SDS011;36133;42.522;27.456;2023-05-02T00:41:09;51.67;;;36.00;;
50249;SDS011;36133;42.522;27.456;2023-05-02T00:43:35;46.35;;;32.85;;
50249;SDS011;36133;42.522;27.456;2023-05-02T00:46:03;46.25;;;29.13;;
50249;SDS011;36133;42.522;27.456;2023-05-02T00:48:30;33.97;;;23.30;;
50249;SDS011;36133;42.522;27.456;2023-05-02T00:50:56;33.05;;;21.95;;
50249;SDS011;36133;42.522;27.456;2023-05-02T00:53:23;33.30;;;19.80;;
50249;SDS011;36133;42.522;27.456;2023-05-02T00:55:48;29.13;;;15.45;;
50249;SDS011;36133;42.522;27.456;2023-05-02T00:58:15;29.80;;;12.65;;
50249;SDS011;36133;42.522;27.456;2023-05-02T01:06:18;19.30;;;10.80;;
50249;SDS011;36133;42.522;27.456;2023-05-02T01:12:19;21.17;;;11.50;;
50249;SDS011;36133;42.522;27.456;2023-05-02T01:14:53;19.70;;;11.05;;
50249;SDS011;36133;42.522;27.456;2023-05-02T01:17:19;17.90;;;10.45;;
50249;SDS011;36133;42.522;27.456;2023-05-02T01:19:53;18.58;;;10.32;;
50249;SDS011;36133;42.522;27.456;2023-05-02T01:22:22;17.23;;;10.65;;
50249;SDS011;36133;42.522;27.456;2023-05-02T01:30:36;28.38;;;11.75;;
50249;SDS011;36133;42.522;27.456;2023-05-02T01:33:05;22.33;;;11.63;;
50249;SDS011;36133;42.522;27.456;2023-05-02T01:35:33;25.10;;;11.85;;
50249;SDS011;36133;42.522;27.456;2023-05-02T01:37:59;27.17;;;12.98;;
50249;SDS011;36133;42.522;27.456;2023-05-02T01:40:27;20.17;;;12.00;;
50249;SDS011;36133;42.522;27.456;2023-05-02T01:42:53;28.10;;;12.50;;
50249;SDS011;36133;42.522;27.456;2023-05-02T01:45:21;28.70;;;12.30;;
50249;SDS011;36133;42.522;27.456;2023-05-02T01:47:48;22.00;;;11.63;;
50249;SDS011;36133;42.522;27.456;2023-05-02T01:50:16;22.40;;;13.43;;
50249;SDS011;36133;42.522;27.456;2023-05-02T01:52:45;27.10;;;12.60;;
50249;SDS011;36133;42.522;27.456;2023-05-02T01:55:14;28.45;;;12.38;;
50249;SDS011;36133;42.522;27.456;2023-05-02T01:57:42;21.08;;;12.20;;
50249;SDS011;36133;42.522;27.456;2023-05-02T02:00:10;19.80;;;11.05;;
50249;SDS011;36133;42.522;27.456;2023-05-02T02:02:38;28.40;;;11.98;;
50249;SDS011;36133;42.522;27.456;2023-05-02T02:05:06;22.13;;;11.52;;
50249;SDS011;36133;42.522;27.456;2023-05-02T02:07:33;21.70;;;11.20;;
50249;SDS011;36133;42.522;27.456;2023-05-02T02:09:59;18.17;;;10.48;;
50249;SDS011;36133;42.522;27.456;2023-05-02T02:12:26;29.35;;;11.88;;
50249;SDS011;36133;42.522;27.456;2023-05-02T02:14:59;22.85;;;12.27;;
50249;SDS011;36133;42.522;27.456;2023-05-02T02:17:38;21.27;;;11.55;;
50249;SDS011;36133;42.522;27.456;2023-05-02T02:20:08;17.70;;;9.95;;
50249;SDS011;36133;42.522;27.456;2023-05-02T02:22:39;19.48;;;10.27;;
50249;SDS011;36133;42.522;27.456;2023-05-02T02:25:07;22.95;;;10.55;;
50249;SDS011;36133;42.522;27.456;2023-05-02T02:27:39;18.65;;;9.95;;
50249;SDS011;36133;42.522;27.456;2023-05-02T02:30:06;20.58;;;10.88;;
50249;SDS011;36133;42.522;27.456;2023-05-02T02:32:32;21.25;;;10.48;;
50249;SDS011;36133;42.522;27.456;2023-05-02T02:34:58;15.32;;;9.75;;
50249;SDS011;36133;42.522;27.456;2023-05-02T02:37:25;19.63;;;10.52;;
50249;SDS011;36133;42.522;27.456;2023-05-02T02:39:59;16.35;;;9.45;;
50249;SDS011;36133;42.522;27.456;2023-05-02T02:42:35;15.40;;;10.45;;
50249;SDS011;36133;42.522;27.456;2023-05-02T02:45:14;17.65;;;10.18;;
50249;SDS011;36133;42.522;27.456;2023-05-02T02:52:47;53.25;;;33.25;;
50249;SDS011;36133;42.522;27.456;2023-05-02T03:01:08;35.00;;;21.42;;
50249;SDS011;36133;42.522;27.456;2023-05-02T03:03:42;30.15;;;17.88;;
50249;SDS011;36133;42.522;27.456;2023-05-02T03:06:09;27.27;;;16.63;;
50249;SDS011;36133;42.522;27.456;2023-05-02T03:08:41;29.45;;;14.70;;
50249;SDS011;36133;42.522;27.456;2023-05-02T03:11:07;19.70;;;11.75;;
50249;SDS011;36133;42.522;27.456;2023-05-02T03:13:33;23.58;;;11.90;;
50249;SDS011;36133;42.522;27.456;2023-05-02T03:18:42;17.23;;;10.77;;
50249;SDS011;36133;42.522;27.456;2023-05-02T03:21:08;19.33;;;11.70;;
50249;SDS011;36133;42.522;27.456;2023-05-02T03:23:33;25.30;;;13.32;;
50249;SDS011;36133;42.522;27.456;2023-05-02T03:25:59;32.90;;;16.08;;
50249;SDS011;36133;42.522;27.456;2023-05-02T03:28:26;39.88;;;17.30;;
50249;SDS011;36133;42.522;27.456;2023-05-02T03:30:52;40.85;;;19.77;;
50249;SDS011;36133;42.522;27.456;2023-05-02T03:33:17;46.97;;;20.60;;
50249;SDS011;36133;42.522;27.456;2023-05-02T03:35:44;55.70;;;20.38;;
50249;SDS011;36133;42.522;27.456;2023-05-02T03:38:09;42.05;;;19.02;;
50249;SDS011;36133;42.522;27.456;2023-05-02T03:40:35;41.20;;;20.08;;
50249;SDS011;36133;42.522;27.456;2023-05-02T03:43:01;39.63;;;18.92;;
50249;SDS011;36133;42.522;27.456;2023-05-02T03:45:28;41.88;;;18.85;;
50249;SDS011;36133;42.522;27.456;2023-05-02T03:47:54;39.80;;;17.55;;
50249;SDS011;36133;42.522;27.456;2023-05-02T03:50:20;33.40;;;14.20;;
50249;SDS011;36133;42.522;27.456;2023-05-02T03:52:45;37.28;;;15.10;;
50249;SDS011;36133;42.522;27.456;2023-05-02T03:55:11;32.10;;;14.77;;
50249;SDS011;36133;42.522;27.456;2023-05-02T03:57:36;36.08;;;17.17;;
50249;SDS011;36133;42.522;27.456;2023-05-02T04:00:02;24.08;;;13.85;;
50249;SDS011;36133;42.522;27.456;2023-05-02T04:02:28;28.02;;;12.35;;
50249;SDS011;36133;42.522;27.456;2023-05-02T04:04:56;24.98;;;12.50;;
50249;SDS011;36133;42.522;27.456;2023-05-02T04:07:22;21.50;;;10.60;;
50249;SDS011;36133;42.522;27.456;2023-05-02T04:09:49;24.20;;;11.48;;
50249;SDS011;36133;42.522;27.456;2023-05-02T04:12:15;32.10;;;12.30;;
50249;SDS011;36133;42.522;27.456;2023-05-02T04:14:41;25.85;;;10.38;;
50249;SDS011;36133;42.522;27.456;2023-05-02T04:17:07;19.35;;;9.85;;
50249;SDS011;36133;42.522;27.456;2023-05-02T04:19:33;21.38;;;9.32;;
50249;SDS011;36133;42.522;27.456;2023-05-02T04:21:59;16.90;;;8.10;;
50249;SDS011;36133;42.522;27.456;2023-05-02T04:24:26;16.00;;;7.90;;
50249;SDS011;36133;42.522;27.456;2023-05-02T04:26:51;13.35;;;6.75;;
50249;SDS011;36133;42.522;27.456;2023-05-02T04:29:17;14.10;;;6.50;;
50249;SDS011;36133;42.522;27.456;2023-05-02T04:31:43;11.27;;;5.60;;
50249;SDS011;36133;42.522;27.456;2023-05-02T04:34:08;12.55;;;5.95;;
50249;SDS011;36133;42.522;27.456;2023-05-02T04:36:34;15.80;;;6.15;;
50249;SDS011;36133;42.522;27.456;2023-05-02T04:39:00;12.90;;;6.40;;
50249;SDS011;36133;42.522;27.456;2023-05-02T04:41:25;12.20;;;5.40;;
50249;SDS011;36133;42.522;27.456;2023-05-02T04:43:52;10.48;;;6.13;;
50249;SDS011;36133;42.522;27.456;2023-05-02T04:46:17;14.10;;;6.15;;
50249;SDS011;36133;42.522;27.456;2023-05-02T04:48:43;10.45;;;6.47;;
50249;SDS011;36133;42.522;27.456;2023-05-02T04:51:09;15.68;;;6.55;;
50249;SDS011;36133;42.522;27.456;2023-05-02T04:53:35;20.77;;;7.57;;
50249;SDS011;36133;42.522;27.456;2023-05-02T04:56:03;17.10;;;7.10;;
50249;SDS011;36133;42.522;27.456;2023-05-02T04:58:28;13.15;;;7.68;;
50249;SDS011;36133;42.522;27.456;2023-05-02T05:00:54;16.65;;;6.97;;
50249;SDS011;36133;42.522;27.456;2023-05-02T05:03:20;15.48;;;8.32;;
50249;SDS011;36133;42.522;27.456;2023-05-02T05:05:46;14.55;;;8.77;;
50249;SDS011;36133;42.522;27.456;2023-05-02T05:08:12;21.50;;;9.35;;
50249;SDS011;36133;42.522;27.456;2023-05-02T05:10:37;24.67;;;11.80;;
50249;SDS011;36133;42.522;27.456;2023-05-02T05:13:04;26.05;;;13.75;;
50249;SDS011;36133;42.522;27.456;2023-05-02T05:15:32;35.60;;;16.90;;
50249;SDS011;36133;42.522;27.456;2023-05-02T05:17:58;34.20;;;17.70;;
50249;SDS011;36133;42.522;27.456;2023-05-02T05:20:24;28.80;;;15.45;;
50249;SDS011;36133;42.522;27.456;2023-05-02T05:22:49;26.20;;;14.30;;
50249;SDS011;36133;42.522;27.456;2023-05-02T05:25:15;28.95;;;18.73;;
50249;SDS011;36133;42.522;27.456;2023-05-02T05:27:42;29.77;;;21.25;;
50249;SDS011;36133;42.522;27.456;2023-05-02T05:30:08;37.72;;;22.05;;
50249;SDS011;36133;42.522;27.456;2023-05-02T05:32:34;31.92;;;20.63;;
50249;SDS011;36133;42.522;27.456;2023-05-02T05:35:00;33.05;;;24.00;;
50249;SDS011;36133;42.522;27.456;2023-05-02T05:37:26;36.50;;;24.48;;
50249;SDS011;36133;42.522;27.456;2023-05-02T05:39:52;30.48;;;20.27;;
50249;SDS011;36133;42.522;27.456;2023-05-02T05:42:17;27.00;;;18.52;;
50249;SDS011;36133;42.522;27.456;2023-05-02T05:44:43;28.27;;;18.17;;
50249;SDS011;36133;42.522;27.456;2023-05-02T05:47:12;27.42;;;17.38;;
50249;SDS011;36133;42.522;27.456;2023-05-02T05:49:43;26.55;;;17.42;;
50249;SDS011;36133;42.522;27.456;2023-05-02T05:52:09;28.05;;;15.70;;
50249;SDS011;36133;42.522;27.456;2023-05-02T05:54:37;29.45;;;15.63;;
50249;SDS011;36133;42.522;27.456;2023-05-02T05:57:03;29.65;;;16.65;;
50249;SDS011;36133;42.522;27.456;2023-05-02T05:59:29;30.60;;;15.77;;
50249;SDS011;36133;42.522;27.456;2023-05-02T06:01:54;28.30;;;17.23;;
50249;SDS011;36133;42.522;27.456;2023-05-02T06:04:20;28.13;;;19.23;;
50249;SDS011;36133;42.522;27.456;2023-05-02T06:06:45;36.75;;;17.42;;
50249;SDS011;36133;42.522;27.456;2023-05-02T06:09:11;27.80;;;17.00;;
50249;SDS011;36133;42.522;27.456;2023-05-02T06:11:36;23.23;;;15.13;;
50249;SDS011;36133;42.522;27.456;2023-05-02T06:14:02;26.45;;;14.10;;
50249;SDS011;36133;42.522;27.456;2023-05-02T06:16:28;23.35;;;13.55;;
50249;SDS011;36133;42.522;27.456;2023-05-02T06:18:53;23.35;;;14.30;;
50249;SDS011;36133;42.522;27.456;2023-05-02T06:21:19;22.40;;;13.13;;
50249;SDS011;36133;42.522;27.456;2023-05-02T06:23:46;25.92;;;11.43;;
50249;SDS011;36133;42.522;27.456;2023-05-02T06:26:14;21.20;;;8.68;;
50249;SDS011;36133;42.522;27.456;2023-05-02T06:28:40;16.55;;;7.97;;
50249;SDS011;36133;42.522;27.456;2023-05-02T06:31:09;17.00;;;7.85;;
50249;SDS011;36133;42.522;27.456;2023-05-02T06:33:36;11.52;;;6.50;;
50249;SDS011;36133;42.522;27.456;2023-05-02T06:36:05;13.75;;;4.63;;
50249;SDS011;36133;42.522;27.456;2023-05-02T06:38:31;9.48;;;5.10;;
50249;SDS011;36133;42.522;27.456;2023-05-02T06:40:59;14.95;;;5.03;;
50249;SDS011;36133;42.522;27.456;2023-05-02T06:43:30;11.40;;;5.50;;
50249;SDS011;36133;42.522;27.456;2023-05-02T06:45:59;11.15;;;5.03;;
50249;SDS011;36133;42.522;27.456;2023-05-02T06:48:25;16.98;;;4.78;;
50249;SDS011;36133;42.522;27.456;2023-05-02T06:50:51;9.35;;;4.50;;
50249;SDS011;36133;42.522;27.456;2023-05-02T06:53:19;12.23;;;4.82;;
50249;SDS011;36133;42.522;27.456;2023-05-02T06:55:45;7.28;;;3.70;;
50249;SDS011;36133;42.522;27.456;2023-05-02T06:58:13;8.45;;;4.20;;
50249;SDS011;36133;42.522;27.456;2023-05-02T07:00:39;8.20;;;3.80;;
50249;SDS011;36133;42.522;27.456;2023-05-02T07:03:05;6.18;;;3.97;;
50249;SDS011;36133;42.522;27.456;2023-05-02T07:05:30;12.15;;;4.00;;
50249;SDS011;36133;42.522;27.456;2023-05-02T07:07:56;7.93;;;3.33;;
50249;SDS011;36133;42.522;27.456;2023-05-02T07:10:21;8.80;;;3.80;;
50249;SDS011;36133;42.522;27.456;2023-05-02T07:12:47;8.48;;;4.10;;
50249;SDS011;36133;42.522;27.456;2023-05-02T07:15:16;10.23;;;3.72;;
50249;SDS011;36133;42.522;27.456;2023-05-02T07:17:44;6.03;;;3.33;;
50249;SDS011;36133;42.522;27.456;2023-05-02T07:20:14;10.27;;;3.95;;
50249;SDS011;36133;42.522;27.456;2023-05-02T07:22:40;8.27;;;3.22;;
50249;SDS011;36133;42.522;27.456;2023-05-02T07:25:07;8.40;;;3.97;;
50249;SDS011;36133;42.522;27.456;2023-05-02T07:27:33;9.60;;;3.95;;
50249;SDS011;36133;42.522;27.456;2023-05-02T07:29:59;15.50;;;4.75;;
50249;SDS011;36133;42.522;27.456;2023-05-02T07:32:27;4.95;;;3.60;;
50249;SDS011;36133;42.522;27.456;2023-05-02T07:34:54;7.28;;;3.55;;
50249;SDS011;36133;42.522;27.456;2023-05-02T07:37:21;7.53;;;3.50;;
50249;SDS011;36133;42.522;27.456;2023-05-02T07:39:47;8.38;;;3.63;;
50249;SDS011;36133;42.522;27.456;2023-05-02T07:42:12;5.70;;;3.83;;
50249;SDS011;36133;42.522;27.456;2023-05-02T07:44:38;5.13;;;3.08;;
50249;SDS011;36133;42.522;27.456;2023-05-02T07:47:16;8.73;;;3.40;;
50249;SDS011;36133;42.522;27.456;2023-05-02T07:49:45;5.32;;;3.00;;
50249;SDS011;36133;42.522;27.456;2023-05-02T07:52:10;6.80;;;3.03;;
50249;SDS011;36133;42.522;27.456;2023-05-02T07:54:36;8.93;;;3.05;;
50249;SDS011;36133;42.522;27.456;2023-05-02T07:57:02;7.50;;;3.13;;
50249;SDS011;36133;42.522;27.456;2023-05-02T07:59:29;6.95;;;2.72;;
50249;SDS011;36133;42.522;27.456;2023-05-02T08:01:56;6.72;;;2.80;;
50249;SDS011;36133;42.522;27.456;2023-05-02T08:04:22;9.68;;;3.35;;
50249;SDS011;36133;42.522;27.456;2023-05-02T08:06:47;8.27;;;3.33;;
50249;SDS011;36133;42.522;27.456;2023-05-02T08:09:13;5.18;;;2.55;;
50249;SDS011;36133;42.522;27.456;2023-05-02T08:11:41;5.45;;;2.53;;
50249;SDS011;36133;42.522;27.456;2023-05-02T08:14:07;6.97;;;2.65;;
50249;SDS011;36133;42.522;27.456;2023-05-02T08:16:33;7.18;;;2.65;;
50249;SDS011;36133;42.522;27.456;2023-05-02T08:19:01;8.50;;;2.80;;
50249;SDS011;36133;42.522;27.456;2023-05-02T08:21:27;8.15;;;2.40;;
50249;SDS011;36133;42.522;27.456;2023-05-02T08:23:59;4.82;;;2.63;;
50249;SDS011;36133;42.522;27.456;2023-05-02T08:26:25;6.40;;;2.30;;
50249;SDS011;36133;42.522;27.456;2023-05-02T08:28:52;10.82;;;2.42;;
50249;SDS011;36133;42.522;27.456;2023-05-02T08:31:19;5.13;;;2.65;;
50249;SDS011;36133;42.522;27.456;2023-05-02T08:33:45;5.95;;;2.53;;
50249;SDS011;36133;42.522;27.456;2023-05-02T08:36:12;3.00;;;2.17;;
50249;SDS011;36133;42.522;27.456;2023-05-02T08:38:38;7.88;;;2.20;;
50249;SDS011;36133;42.522;27.456;2023-05-02T08:41:13;5.68;;;2.13;;
50249;SDS011;36133;42.522;27.456;2023-05-02T08:43:47;7.00;;;2.55;;
50249;SDS011;36133;42.522;27.456;2023-05-02T08:46:13;9.02;;;2.30;;
50249;SDS011;36133;42.522;27.456;2023-05-02T08:48:41;6.40;;;2.58;;
50249;SDS011;36133;42.522;27.456;2023-05-02T08:51:09;7.32;;;2.75;;
50249;SDS011;36133;42.522;27.456;2023-05-02T08:53:41;4.22;;;2.15;;
50249;SDS011;36133;42.522;27.456;2023-05-02T08:56:10;3.90;;;2.40;;
50249;SDS011;36133;42.522;27.456;2023-05-02T08:58:37;4.25;;;2.30;;
50249;SDS011;36133;42.522;27.456;2023-05-02T09:01:16;6.03;;;2.92;;
50249;SDS011;36133;42.522;27.456;2023-05-02T09:03:45;6.68;;;2.20;;
50249;SDS011;36133;42.522;27.456;2023-05-02T09:06:15;6.88;;;2.42;;
50249;SDS011;36133;42.522;27.456;2023-05-02T09:08:43;3.95;;;2.22;;
50249;SDS011;36133;42.522;27.456;2023-05-02T09:11:13;3.33;;;2.10;;
50249;SDS011;36133;42.522;27.456;2023-05-02T09:13:46;5.70;;;2.13;;
50249;SDS011;36133;42.522;27.456;2023-05-02T09:16:31;6.95;;;2.40;;
50249;SDS011;36133;42.522;27.456;2023-05-02T09:19:07;4.47;;;2.30;;
50249;SDS011;36133;42.522;27.456;2023-05-02T09:21:50;4.82;;;1.88;;
50249;SDS011;36133;42.522;27.456;2023-05-02T09:24:16;6.88;;;2.40;;
50249;SDS011;36133;42.522;27.456;2023-05-02T09:26:57;2.78;;;2.20;;
50249;SDS011;36133;42.522;27.456;2023-05-02T09:29:26;7.35;;;2.50;;
50249;SDS011;36133;42.522;27.456;2023-05-02T09:31:54;4.95;;;2.67;;
50249;SDS011;36133;42.522;27.456;2023-05-02T09:34:20;9.15;;;2.72;;
50249;SDS011;36133;42.522;27.456;2023-05-02T09:36:50;7.55;;;2.65;;
50249;SDS011;36133;42.522;27.456;2023-05-02T09:39:27;7.55;;;2.75;;
50249;SDS011;36133;42.522;27.456;2023-05-02T09:41:53;7.63;;;3.08;;
50249;SDS011;36133;42.522;27.456;2023-05-02T09:44:21;6.47;;;2.60;;
50249;SDS011;36133;42.522;27.456;2023-05-02T09:46:49;5.90;;;2.90;;
50249;SDS011;36133;42.522;27.456;2023-05-02T09:49:18;4.13;;;2.58;;
50249;SDS011;36133;42.522;27.456;2023-05-02T09:52:15;7.00;;;2.40;;
50249;SDS011;36133;42.522;27.456;2023-05-02T09:54:43;6.57;;;3.05;;
50249;SDS011;36133;42.522;27.456;2023-05-02T09:57:14;4.75;;;2.40;;
50249;SDS011;36133;42.522;27.456;2023-05-02T09:59:40;5.50;;;3.00;;
50249;SDS011;36133;42.522;27.456;2023-05-02T10:02:17;5.53;;;2.53;;
50249;SDS011;36133;42.522;27.456;2023-05-02T10:04:44;5.88;;;1.92;;
50249;SDS011;36133;42.522;27.456;2023-05-02T10:07:11;9.38;;;2.45;;
50249;SDS011;36133;42.522;27.456;2023-05-02T10:09:40;7.53;;;2.60;;
50249;SDS011;36133;42.522;27.456;2023-05-02T10:12:08;5.88;;;2.45;;
50249;SDS011;36133;42.522;27.456;2023-05-02T10:14:47;4.57;;;2.10;;
50249;SDS011;36133;42.522;27.456;2023-05-02T10:17:26;6.82;;;2.33;;
50249;SDS011;36133;42.522;27.456;2023-05-02T10:20:05;4.97;;;2.53;;
50249;SDS011;36133;42.522;27.456;2023-05-02T10:22:32;5.18;;;2.75;;
50249;SDS011;36133;42.522;27.456;2023-05-02T10:25:02;6.05;;;2.28;;
50249;SDS011;36133;42.522;27.456;2023-05-02T10:27:28;5.82;;;2.85;;
50249;SDS011;36133;42.522;27.456;2023-05-02T10:29:57;5.10;;;2.50;;
50249;SDS011;36133;42.522;27.456;2023-05-02T10:32:23;7.63;;;3.08;;
50249;SDS011;36133;42.522;27.456;2023-05-02T10:34:53;5.70;;;2.30;;
50249;SDS011;36133;42.522;27.456;2023-05-02T10:37:21;10.45;;;2.60;;
50249;SDS011;36133;42.522;27.456;2023-05-02T10:39:49;7.68;;;2.58;;
50249;SDS011;36133;42.522;27.456;2023-05-02T10:42:16;5.78;;;2.35;;
50249;SDS011;36133;42.522;27.456;2023-05-02T10:44:44;5.55;;;2.30;;
50249;SDS011;36133;42.522;27.456;2023-05-02T10:49:57;6.38;;;2.17;;
50249;SDS011;36133;42.522;27.456;2023-05-02T10:52:32;6.15;;;2.60;;
50249;SDS011;36133;42.522;27.456;2023-05-02T11:00:24;4.85;;;2.05;;
50249;SDS011;36133;42.522;27.456;2023-05-02T11:02:51;4.82;;;2.45;;
50249;SDS011;36133;42.522;27.456;2023-05-02T11:05:17;12.27;;;2.95;;
50249;SDS011;36133;42.522;27.456;2023-05-02T11:07:43;5.65;;;2.50;;
50249;SDS011;36133;42.522;27.456;2023-05-02T11:12:50;4.80;;;2.15;;
50249;SDS011;36133;42.522;27.456;2023-05-02T11:18:06;11.10;;;4.00;;
50249;SDS011;36133;42.522;27.456;2023-05-02T11:20:35;4.35;;;1.95;;
50249;SDS011;36133;42.522;27.456;2023-05-02T11:25:38;4.72;;;2.40;;
50249;SDS011;36133;42.522;27.456;2023-05-02T11:28:06;6.00;;;2.00;;
50249;SDS011;36133;42.522;27.456;2023-05-02T11:30:54;5.88;;;2.30;;
50249;SDS011;36133;42.522;27.456;2023-05-02T11:33:20;9.90;;;2.60;;
50249;SDS011;36133;42.522;27.456;2023-05-02T11:35:50;6.60;;;2.25;;
50249;SDS011;36133;42.522;27.456;2023-05-02T11:38:17;6.43;;;2.40;;
50249;SDS011;36133;42.522;27.456;2023-05-02T11:40:53;5.50;;;2.40;;
50249;SDS011;36133;42.522;27.456;2023-05-02T11:43:20;5.35;;;2.05;;
50249;SDS011;36133;42.522;27.456;2023-05-02T11:45:47;4.78;;;2.25;;
50249;SDS011;36133;42.522;27.456;2023-05-02T11:48:14;7.25;;;2.63;;
50249;SDS011;36133;42.522;27.456;2023-05-02T11:50:42;11.05;;;2.83;;
50249;SDS011;36133;42.522;27.456;2023-05-02T11:53:12;5.40;;;2.60;;
50249;SDS011;36133;42.522;27.456;2023-05-02T11:55:49;6.03;;;2.58;;
50249;SDS011;36133;42.522;27.456;2023-05-02T11:58:20;4.60;;;2.85;;
50249;SDS011;36133;42.522;27.456;2023-05-02T12:00:47;10.18;;;2.65;;
50249;SDS011;36133;42.522;27.456;2023-05-02T12:03:21;3.10;;;2.03;;
50249;SDS011;36133;42.522;27.456;2023-05-02T12:05:52;17.63;;;2.60;;
50249;SDS011;36133;42.522;27.456;2023-05-02T12:08:21;4.53;;;2.30;;
50249;SDS011;36133;42.522;27.456;2023-05-02T12:10:49;6.28;;;2.22;;
50249;SDS011;36133;42.522;27.456;2023-05-02T12:13:18;10.15;;;2.20;;
50249;SDS011;36133;42.522;27.456;2023-05-02T12:15:45;12.80;;;2.92;;
50249;SDS011;36133;42.522;27.456;2023-05-02T12:18:12;3.55;;;1.77;;
50249;SDS011;36133;42.522;27.456;2023-05-02T12:20:40;4.38;;;1.92;;
50249;SDS011;36133;42.522;27.456;2023-05-02T12:23:06;6.65;;;2.33;;
50249;SDS011;36133;42.522;27.456;2023-05-02T12:25:39;4.30;;;2.33;;
50249;SDS011;36133;42.522;27.456;2023-05-02T12:28:06;6.82;;;2.10;;
50249;SDS011;36133;42.522;27.456;2023-05-02T12:30:33;3.72;;;1.90;;
50249;SDS011;36133;42.522;27.456;2023-05-02T12:33:04;2.85;;;1.90;;
50249;SDS011;36133;42.522;27.456;2023-05-02T12:35:31;5.90;;;2.25;;
50249;SDS011;36133;42.522;27.456;2023-05-02T12:40:53;6.57;;;2.13;;
50249;SDS011;36133;42.522;27.456;2023-05-02T12:43:21;8.10;;;2.38;;
50249;SDS011;36133;42.522;27.456;2023-05-02T12:45:48;7.72;;;2.47;;
50249;SDS011;36133;42.522;27.456;2023-05-02T12:50:50;5.60;;;2.30;;
50249;SDS011;36133;42.522;27.456;2023-05-02T12:53:17;4.75;;;2.28;;
50249;SDS011;36133;42.522;27.456;2023-05-02T12:56:03;8.38;;;2.30;;
50249;SDS011;36133;42.522;27.456;2023-05-02T12:58:29;4.80;;;2.58;;
50249;SDS011;36133;42.522;27.456;2023-05-02T13:01:04;4.90;;;3.22;;
50249;SDS011;36133;42.522;27.456;2023-05-02T13:03:32;5.45;;;2.53;;
50249;SDS011;36133;42.522;27.456;2023-05-02T13:05:57;4.32;;;2.50;;
50249;SDS011;36133;42.522;27.456;2023-05-02T13:08:23;9.30;;;2.20;;
50249;SDS011;36133;42.522;27.456;2023-05-02T13:10:49;4.30;;;2.05;;
50249;SDS011;36133;42.522;27.456;2023-05-02T13:13:15;5.75;;;2.55;;
50249;SDS011;36133;42.522;27.456;2023-05-02T13:15:43;4.78;;;2.95;;
50249;SDS011;36133;42.522;27.456;2023-05-02T13:18:09;3.78;;;2.35;;
50249;SDS011;36133;42.522;27.456;2023-05-02T13:20:34;4.18;;;2.60;;
50249;SDS011;36133;42.522;27.456;2023-05-02T13:23:00;3.25;;;2.25;;
50249;SDS011;36133;42.522;27.456;2023-05-02T13:25:26;4.97;;;2.50;;
50249;SDS011;36133;42.522;27.456;2023-05-02T13:27:52;4.53;;;2.00;;
50249;SDS011;36133;42.522;27.456;2023-05-02T13:30:17;5.15;;;2.40;;
50249;SDS011;36133;42.522;27.456;2023-05-02T13:32:43;3.38;;;2.25;;
50249;SDS011;36133;42.522;27.456;2023-05-02T13:35:09;6.20;;;2.67;;
50249;SDS011;36133;42.522;27.456;2023-05-02T13:37:39;5.75;;;2.53;;
50249;SDS011;36133;42.522;27.456;2023-05-02T13:40:06;8.10;;;3.00;;
50249;SDS011;36133;42.522;27.456;2023-05-02T13:42:32;6.50;;;2.85;;
50249;SDS011;36133;42.522;27.456;2023-05-02T13:44:58;4.38;;;2.53;;
50249;SDS011;36133;42.522;27.456;2023-05-02T13:47:24;7.05;;;2.63;;
50249;SDS011;36133;42.522;27.456;2023-05-02T13:49:50;3.53;;;2.25;;
50249;SDS011;36133;42.522;27.456;2023-05-02T13:52:16;9.48;;;2.92;;
50249;SDS011;36133;42.522;27.456;2023-05-02T13:54:41;7.18;;;3.00;;
50249;SDS011;36133;42.522;27.456;2023-05-02T13:57:07;10.98;;;6.50;;
50249;SDS011;36133;42.522;27.456;2023-05-02T13:59:33;6.32;;;3.60;;
50249;SDS011;36133;42.522;27.456;2023-05-02T14:01:58;7.80;;;3.17;;
50249;SDS011;36133;42.522;27.456;2023-05-02T14:04:24;5.85;;;2.85;;
50249;SDS011;36133;42.522;27.456;2023-05-02T14:06:50;7.45;;;3.22;;
50249;SDS011;36133;42.522;27.456;2023-05-02T14:09:15;6.68;;;3.22;;
50249;SDS011;36133;42.522;27.456;2023-05-02T14:11:44;6.43;;;2.92;;
50249;SDS011;36133;42.522;27.456;2023-05-02T14:14:11;9.88;;;3.10;;
50249;SDS011;36133;42.522;27.456;2023-05-02T14:16:37;6.15;;;2.70;;
50249;SDS011;36133;42.522;27.456;2023-05-02T14:19:03;4.95;;;2.47;;
50249;SDS011;36133;42.522;27.456;2023-05-02T14:21:29;4.40;;;2.80;;
50249;SDS011;36133;42.522;27.456;2023-05-02T14:23:56;5.10;;;3.00;;
50249;SDS011;36133;42.522;27.456;2023-05-02T14:26:21;8.15;;;2.70;;
50249;SDS011;36133;42.522;27.456;2023-05-02T14:28:47;5.65;;;2.60;;
50249;SDS011;36133;42.522;27.456;2023-05-02T14:31:24;7.93;;;3.10;;
50249;SDS011;36133;42.522;27.456;2023-05-02T14:33:51;11.20;;;4.50;;
50249;SDS011;36133;42.522;27.456;2023-05-02T14:36:16;9.48;;;3.75;;
50249;SDS011;36133;42.522;27.456;2023-05-02T14:38:42;4.97;;;3.53;;
50249;SDS011;36133;42.522;27.456;2023-05-02T14:41:08;5.30;;;3.65;;
50249;SDS011;36133;42.522;27.456;2023-05-02T14:43:37;6.65;;;3.60;;
50249;SDS011;36133;42.522;27.456;2023-05-02T14:46:03;7.45;;;3.15;;
50249;SDS011;36133;42.522;27.456;2023-05-02T14:48:29;5.95;;;2.97;;
50249;SDS011;36133;42.522;27.456;2023-05-02T14:50:55;8.38;;;3.22;;
50249;SDS011;36133;42.522;27.456;2023-05-02T14:53:22;7.60;;;3.30;;
50249;SDS011;36133;42.522;27.456;2023-05-02T14:55:48;7.47;;;2.78;;
50249;SDS011;36133;42.522;27.456;2023-05-02T14:58:14;5.38;;;3.05;;
50249;SDS011;36133;42.522;27.456;2023-05-02T15:00:44;5.15;;;2.83;;
50249;SDS011;36133;42.522;27.456;2023-05-02T15:03:11;5.50;;;2.80;;
50249;SDS011;36133;42.522;27.456;2023-05-02T15:05:39;5.50;;;3.00;;
50249;SDS011;36133;42.522;27.456;2023-05-02T15:08:31;15.57;;;2.72;;
50249;SDS011;36133;42.522;27.456;2023-05-02T15:10:56;12.05;;;4.80;;
50249;SDS011;36133;42.522;27.456;2023-05-02T15:13:22;5.57;;;2.35;;
50249;SDS011;36133;42.522;27.456;2023-05-02T15:15:48;7.90;;;2.97;;
50249;SDS011;36133;42.522;27.456;2023-05-02T15:18:13;9.20;;;3.42;;